createdAt,value
2022-08-20T00:02:12.784Z,3.70
2022-08-20T00:04:39.862Z,4.20
2022-08-20T00:07:09.564Z,3.57
2022-08-20T00:09:38.653Z,4.00
2022-08-20T00:12:06.526Z,3.63
2022-08-20T00:14:39.287Z,4.20
2022-08-20T00:17:13.511Z,3.50
2022-08-20T00:19:40.260Z,3.80
2022-08-20T00:22:09.621Z,3.80
2022-08-20T00:24:39.093Z,3.40
2022-08-20T00:27:06.097Z,3.53
2022-08-20T00:29:32.897Z,3.73
2022-08-20T00:31:59.991Z,3.87
2022-08-20T00:34:30.109Z,3.97
2022-08-20T00:36:59.376Z,3.70
2022-08-20T00:39:30.847Z,3.70
2022-08-20T00:42:02.779Z,4.13
2022-08-20T00:44:30.113Z,3.60
2022-08-20T00:47:02.566Z,3.60
2022-08-20T00:49:32.976Z,4.00
2022-08-20T00:52:20.724Z,3.60
2022-08-20T00:54:57.176Z,3.70
2022-08-20T00:58:00.845Z,3.83
2022-08-20T01:00:46.020Z,5.60
2022-08-20T01:03:16.236Z,3.97
2022-08-20T01:05:49.853Z,3.47
2022-08-20T01:08:24.750Z,3.83
2022-08-20T01:11:28.445Z,3.57
2022-08-20T01:14:29.163Z,3.90
2022-08-20T01:17:02.239Z,4.00
2022-08-20T01:19:52.548Z,3.87
2022-08-20T01:23:13.051Z,3.77
2022-08-20T01:26:10.113Z,4.20
2022-08-20T01:28:52.936Z,4.00
2022-08-20T01:31:28.257Z,3.90
2022-08-20T01:34:03.333Z,3.60
2022-08-20T01:36:46.475Z,3.53
2022-08-20T01:39:21.397Z,3.40
2022-08-20T01:42:18.008Z,3.57
2022-08-20T01:44:47.265Z,3.70
2022-08-20T01:47:29.199Z,3.47
2022-08-20T01:50:05.907Z,3.53
2022-08-20T01:53:09.369Z,3.60
2022-08-20T01:55:39.797Z,3.93
2022-08-20T01:58:09.191Z,3.27
2022-08-20T02:00:41.192Z,3.73
2022-08-20T02:03:08.610Z,3.80
2022-08-20T02:05:37.963Z,3.47
2022-08-20T02:08:05.823Z,3.70
2022-08-20T02:10:36.246Z,3.80
2022-08-20T02:13:06.231Z,3.63
2022-08-20T02:15:42.894Z,3.60
2022-08-20T02:18:16.816Z,3.70
2022-08-20T02:20:45.886Z,3.60
2022-08-20T02:23:16.188Z,4.00
2022-08-20T02:25:51.346Z,3.47
2022-08-20T02:28:23.987Z,3.93
2022-08-20T02:30:57.397Z,3.67
2022-08-20T02:33:24.654Z,3.60
2022-08-20T02:35:56.280Z,3.67
2022-08-20T02:38:28.228Z,3.67
2022-08-20T02:40:57.184Z,3.30
2022-08-20T02:43:26.053Z,3.20
2022-08-20T02:45:52.858Z,3.53
2022-08-20T02:48:24.180Z,3.63
2022-08-20T02:50:57.492Z,3.63
2022-08-20T02:53:41.750Z,3.57
2022-08-20T02:56:16.544Z,3.60
2022-08-20T02:58:43.370Z,4.10
2022-08-20T03:01:18.891Z,3.63
2022-08-20T03:03:52.545Z,3.60
2022-08-20T03:06:20.590Z,3.77
2022-08-20T03:08:49.592Z,3.20
2022-08-20T03:11:17.750Z,3.57
2022-08-20T03:13:47.285Z,3.73
2022-08-20T03:16:17.289Z,4.00
2022-08-20T03:18:52.036Z,3.43
2022-08-20T03:21:21.784Z,3.77
2022-08-20T03:23:48.780Z,4.20
2022-08-20T03:26:17.909Z,3.90
2022-08-20T03:28:47.074Z,4.20
2022-08-20T03:31:16.236Z,4.60
2022-08-20T03:33:48.845Z,5.00
2022-08-20T03:36:22.155Z,4.67
2022-08-20T03:39:11.663Z,5.20
2022-08-20T03:41:39.146Z,5.57
2022-08-20T03:44:06.808Z,4.33
2022-08-20T03:46:39.515Z,4.63
2022-08-20T03:49:08.840Z,4.60
2022-08-20T03:51:57.061Z,4.33
2022-08-20T03:54:29.091Z,4.87
2022-08-20T03:56:59.909Z,5.10
2022-08-20T03:59:29.797Z,5.07
2022-08-20T04:01:57.088Z,5.33
2022-08-20T04:04:26.962Z,4.93
2022-08-20T04:06:56.427Z,4.30
2022-08-20T04:09:25.560Z,4.80
2022-08-20T04:11:58.644Z,4.70
2022-08-20T04:14:30.143Z,4.60
2022-08-20T04:16:56.966Z,5.33
2022-08-20T04:19:23.936Z,5.17
2022-08-20T04:21:53.379Z,4.97
2022-08-20T04:24:31.827Z,5.20
2022-08-20T04:27:08.099Z,4.87
2022-08-20T04:29:36.842Z,5.70
2022-08-20T04:32:09.524Z,5.70
2022-08-20T04:34:36.813Z,6.23
2022-08-20T04:37:16.946Z,6.20
2022-08-20T04:40:06.543Z,6.27
2022-08-20T04:42:39.156Z,6.47
2022-08-20T04:45:11.224Z,6.00
2022-08-20T04:47:40.289Z,6.63
2022-08-20T04:50:17.736Z,6.73
2022-08-20T04:52:44.628Z,7.50
2022-08-20T04:55:14.056Z,5.87
2022-08-20T04:57:42.860Z,6.07
2022-08-20T05:00:16.047Z,6.10
2022-08-20T05:02:45.555Z,5.77
2022-08-20T05:05:14.286Z,5.60
2022-08-20T05:07:46.141Z,6.07
2022-08-20T05:10:18.323Z,5.90
2022-08-20T05:12:56.874Z,5.87
2022-08-20T05:15:26.411Z,5.57
2022-08-20T05:18:04.600Z,5.53
2022-08-20T05:20:41.871Z,5.03
2022-08-20T05:23:14.349Z,5.47
2022-08-20T05:25:43.707Z,5.80
2022-08-20T05:28:25.340Z,5.77
2022-08-20T05:30:53.983Z,5.60
2022-08-20T05:33:23.033Z,5.63
2022-08-20T05:35:56.525Z,6.10
2022-08-20T05:38:28.304Z,6.13
2022-08-20T05:40:57.852Z,5.77
2022-08-20T05:43:24.675Z,6.23
2022-08-20T05:45:56.845Z,6.17
2022-08-20T05:48:25.476Z,6.53
2022-08-20T05:50:54.397Z,6.73
2022-08-20T05:53:27.836Z,6.43
2022-08-20T05:55:54.738Z,6.20
2022-08-20T05:58:26.788Z,5.33
2022-08-20T06:00:57.246Z,6.57
2022-08-20T06:03:42.491Z,5.50
2022-08-20T06:06:18.212Z,5.80
2022-08-20T06:08:59.225Z,5.37
2022-08-20T06:11:37.479Z,5.13
2022-08-20T06:14:09.719Z,4.70
2022-08-20T06:16:57.121Z,5.27
2022-08-20T06:19:26.992Z,4.70
2022-08-20T06:21:57.182Z,4.83
2022-08-20T06:24:29.516Z,5.10
2022-08-20T06:27:02.463Z,5.10
2022-08-20T06:29:33.180Z,4.90
2022-08-20T06:32:03.242Z,5.27
2022-08-20T06:34:30.918Z,6.10
2022-08-20T06:37:01.967Z,5.53
2022-08-20T06:39:31.059Z,6.00
2022-08-20T06:42:03.368Z,5.50
2022-08-20T06:44:34.276Z,5.70
2022-08-20T06:47:03.808Z,4.80
2022-08-20T06:49:35.308Z,5.17
2022-08-20T06:52:07.691Z,5.30
2022-08-20T06:54:40.656Z,5.70
2022-08-20T06:57:07.427Z,5.70
2022-08-20T06:59:36.754Z,5.10
2022-08-20T07:02:04.592Z,5.87
2022-08-20T07:04:31.692Z,5.93
2022-08-20T07:07:01.115Z,5.20
2022-08-20T07:09:29.037Z,6.03
2022-08-20T07:11:58.334Z,5.63
2022-08-20T07:14:27.378Z,6.00
2022-08-20T07:16:54.206Z,6.47
2022-08-20T07:19:24.343Z,5.73
2022-08-20T07:21:53.609Z,7.73
2022-08-20T07:24:25.624Z,5.87
2022-08-20T07:27:02.837Z,5.67
2022-08-20T07:29:57.528Z,5.20
2022-08-20T07:32:41.979Z,5.37
2022-08-20T07:35:18.599Z,5.80
2022-08-20T07:37:52.194Z,5.37
2022-08-20T07:40:30.668Z,5.17
2022-08-20T07:43:01.081Z,5.77
2022-08-20T07:45:31.057Z,5.67
2022-08-20T07:48:09.782Z,5.57
2022-08-20T07:50:36.590Z,5.20
2022-08-20T07:53:03.784Z,5.77
2022-08-20T07:55:31.015Z,5.90
2022-08-20T07:58:07.397Z,5.40
2022-08-20T08:00:37.370Z,5.20
2022-08-20T08:03:10.323Z,4.50
2022-08-20T08:05:47.833Z,6.07
2022-08-20T08:08:21.971Z,6.20
2022-08-20T08:10:57.680Z,5.60
2022-08-20T08:13:32.174Z,5.03
2022-08-20T08:16:02.102Z,5.27
2022-08-20T08:18:40.551Z,5.03
2022-08-20T08:21:13.017Z,5.30
2022-08-20T08:23:44.740Z,5.17
2022-08-20T08:26:15.878Z,4.60
2022-08-20T08:28:48.087Z,4.57
2022-08-20T08:31:18.024Z,5.27
2022-08-20T08:33:47.875Z,4.27
2022-08-20T08:36:18.485Z,4.63
2022-08-20T08:38:51.014Z,4.40
2022-08-20T08:41:29.525Z,5.30
2022-08-20T08:44:11.212Z,4.10
2022-08-20T08:46:49.504Z,3.87
2022-08-20T08:49:37.857Z,3.83
2022-08-20T08:52:35.250Z,4.03
2022-08-20T08:55:08.620Z,4.57
2022-08-20T08:57:35.408Z,4.37
2022-08-20T09:00:14.084Z,4.03
2022-08-20T09:03:02.390Z,3.80
2022-08-20T09:05:48.567Z,3.70
2022-08-20T09:08:28.154Z,3.70
2022-08-20T09:10:55.517Z,3.50
2022-08-20T09:13:24.805Z,4.33
2022-08-20T09:15:56.288Z,4.23
2022-08-20T09:18:23.108Z,3.87
2022-08-20T09:20:54.481Z,3.93
2022-08-20T09:23:24.541Z,3.93
2022-08-20T09:25:52.455Z,4.20
2022-08-20T09:28:19.635Z,4.13
2022-08-20T09:30:46.988Z,3.97
2022-08-20T09:33:18.889Z,3.97
2022-08-20T09:35:46.658Z,4.30
2022-08-20T09:38:16.395Z,4.77
2022-08-20T09:40:48.121Z,4.10
2022-08-20T09:43:14.967Z,4.00
2022-08-20T09:45:41.864Z,3.50
2022-08-20T09:48:10.506Z,3.80
2022-08-20T09:50:44.230Z,3.50
2022-08-20T09:53:13.603Z,3.30
2022-08-20T09:55:51.013Z,3.43
2022-08-20T09:58:40.940Z,3.03
2022-08-20T10:01:14.890Z,3.03
2022-08-20T10:03:43.949Z,3.00
2022-08-20T10:06:14.580Z,2.53
2022-08-20T10:08:41.567Z,3.83
2022-08-20T10:11:08.429Z,3.90
2022-08-20T10:13:42.344Z,3.43
2022-08-20T10:16:09.422Z,3.27
2022-08-20T10:18:39.095Z,3.00
2022-08-20T10:21:15.591Z,3.20
2022-08-20T10:23:45.279Z,3.10
2022-08-20T10:26:16.956Z,4.37
2022-08-20T10:28:47.425Z,4.33
2022-08-20T10:31:17.520Z,3.23
2022-08-20T10:33:44.652Z,3.07
2022-08-20T10:36:17.104Z,3.40
2022-08-20T10:38:44.908Z,3.10
2022-08-20T10:41:14.396Z,2.93
2022-08-20T10:43:41.164Z,2.80
2022-08-20T10:46:08.019Z,2.90
2022-08-20T10:48:37.527Z,3.00
2022-08-20T10:51:04.862Z,3.00
2022-08-20T10:53:34.846Z,2.93
2022-08-20T10:56:04.135Z,2.87
2022-08-20T10:58:39.751Z,2.70
2022-08-20T11:01:07.971Z,3.50
2022-08-20T11:03:39.967Z,2.87
2022-08-20T11:06:09.118Z,2.70
2022-08-20T11:08:40.835Z,3.43
2022-08-20T11:11:10.154Z,3.00
2022-08-20T11:13:37.064Z,3.40
2022-08-20T11:16:07.224Z,2.90
2022-08-20T11:18:34.171Z,2.90
2022-08-20T11:21:08.140Z,3.00
2022-08-20T11:23:35.752Z,2.83
2022-08-20T11:26:05.216Z,2.73
2022-08-20T11:28:34.742Z,2.40
2022-08-20T11:31:02.058Z,2.50
2022-08-20T11:33:33.401Z,2.57
2022-08-20T11:36:02.952Z,2.53
2022-08-20T11:38:29.935Z,2.70
2022-08-20T11:41:03.979Z,4.83
2022-08-20T11:43:32.881Z,3.57
2022-08-20T11:46:04.228Z,3.03
2022-08-20T11:48:31.209Z,2.53
2022-08-20T11:51:00.517Z,3.00
2022-08-20T11:53:29.516Z,3.03
2022-08-20T11:56:01.198Z,2.20
2022-08-20T11:58:28.052Z,2.40
2022-08-20T12:00:54.976Z,2.27
2022-08-20T12:03:24.829Z,2.90
2022-08-20T12:05:51.632Z,2.67
2022-08-20T12:08:25.094Z,2.63
2022-08-20T12:11:00.150Z,2.73
2022-08-20T12:13:48.523Z,2.70
2022-08-20T12:16:20.010Z,2.23
2022-08-20T12:18:48.608Z,2.30
2022-08-20T12:21:15.644Z,2.50
2022-08-20T12:23:44.672Z,2.40
2022-08-20T12:26:16.713Z,3.07
2022-08-20T12:28:43.872Z,2.67
2022-08-20T12:31:15.372Z,2.10
2022-08-20T12:33:42.166Z,2.00
2022-08-20T12:36:13.523Z,2.40
2022-08-20T12:38:42.621Z,2.60
2022-08-20T12:41:13.726Z,2.50
2022-08-20T12:43:45.066Z,2.80
2022-08-20T12:46:11.879Z,2.40
2022-08-20T12:48:38.647Z,2.58
2022-08-20T12:51:05.546Z,2.58
2022-08-20T12:53:34.485Z,2.65
2022-08-20T12:56:09.172Z,2.40
2022-08-20T12:58:40.644Z,2.17
2022-08-20T13:01:10.053Z,2.50
2022-08-20T13:03:40.811Z,2.17
2022-08-20T13:06:12.119Z,2.55
2022-08-20T13:08:43.543Z,2.53
2022-08-20T13:11:10.378Z,2.33
2022-08-20T13:13:37.177Z,2.40
2022-08-20T13:16:09.566Z,2.40
2022-08-20T13:18:36.336Z,2.37
2022-08-20T13:21:03.397Z,2.22
2022-08-20T13:23:30.430Z,2.50
2022-08-20T13:25:57.245Z,2.50
2022-08-20T13:28:26.254Z,2.47
2022-08-20T13:30:53.102Z,2.20
2022-08-20T13:33:22.315Z,2.20
2022-08-20T13:35:49.183Z,4.25
2022-08-20T13:38:18.375Z,2.10
2022-08-20T13:40:48.795Z,2.33
2022-08-20T13:43:16.221Z,2.50
2022-08-20T13:45:45.263Z,1.98
2022-08-20T13:48:14.940Z,2.80
2022-08-20T13:50:47.319Z,2.60
2022-08-20T13:53:17.050Z,2.38
2022-08-20T13:55:49.693Z,2.60
2022-08-20T13:58:19.102Z,2.95
2022-08-20T14:00:48.911Z,2.50
2022-08-20T14:03:20.069Z,2.15
2022-08-20T14:05:52.543Z,2.90
2022-08-20T14:08:27.064Z,2.58
2022-08-20T14:10:57.142Z,2.80
2022-08-20T14:13:26.570Z,2.58
2022-08-20T14:15:55.053Z,2.58
2022-08-20T14:18:24.551Z,3.28
2022-08-20T14:20:53.648Z,3.10
2022-08-20T14:23:22.846Z,3.00
2022-08-20T14:25:54.538Z,3.35
2022-08-20T14:28:24.491Z,3.10
2022-08-20T14:30:54.277Z,3.47
2022-08-20T14:33:24.491Z,2.85
2022-08-20T14:35:52.910Z,2.95
2022-08-20T14:38:22.585Z,2.65
2022-08-20T14:40:54.294Z,3.33
2022-08-20T14:43:25.840Z,3.25
2022-08-20T14:45:57.773Z,3.30
2022-08-20T14:48:28.190Z,3.03
2022-08-20T14:50:55.863Z,3.28
2022-08-20T14:53:24.897Z,3.70
2022-08-20T14:55:54.202Z,2.97
2022-08-20T14:58:21.047Z,3.50
2022-08-20T15:00:48.226Z,3.05
2022-08-20T15:03:17.594Z,3.67
2022-08-20T15:05:44.416Z,2.90
2022-08-20T15:08:11.384Z,3.38
2022-08-20T15:10:39.306Z,3.25
2022-08-20T15:13:06.629Z,3.15
2022-08-20T15:15:35.832Z,2.85
2022-08-20T15:18:04.963Z,3.53
2022-08-20T15:20:38.272Z,3.22
2022-08-20T15:23:06.126Z,3.47
2022-08-20T15:25:37.903Z,5.78
2022-08-20T15:28:08.818Z,4.00
2022-08-20T15:30:43.760Z,3.28
2022-08-20T15:33:13.116Z,3.72
2022-08-20T15:35:42.451Z,3.40
2022-08-20T15:38:14.369Z,3.55
2022-08-20T15:40:41.368Z,3.30
2022-08-20T15:43:08.159Z,3.75
2022-08-20T15:45:36.589Z,4.90
2022-08-20T15:48:15.295Z,3.55
2022-08-20T15:50:48.098Z,3.25
2022-08-20T15:53:47.169Z,3.50
2022-08-20T15:56:32.164Z,3.10
2022-08-20T15:59:30.443Z,2.95
2022-08-20T16:02:30.581Z,3.30
2022-08-20T16:05:20.830Z,3.60
2022-08-20T16:07:50.583Z,3.25
2022-08-20T16:10:36.462Z,3.55
2022-08-20T16:13:19.224Z,3.63
2022-08-20T16:15:49.742Z,3.85
2022-08-20T16:18:34.775Z,3.95
2022-08-20T16:21:09.272Z,3.65
2022-08-20T16:23:40.644Z,3.97
2022-08-20T16:26:36.788Z,3.50
2022-08-20T16:29:12.983Z,3.70
2022-08-20T16:32:14.092Z,3.50
2022-08-20T16:34:51.254Z,4.05
2022-08-20T16:37:38.462Z,3.60
2022-08-20T16:40:17.337Z,4.25
2022-08-20T16:42:51.134Z,4.05
2022-08-20T16:45:27.310Z,3.50
2022-08-20T16:48:02.357Z,3.60
2022-08-20T16:50:47.502Z,3.25
2022-08-20T16:53:23.541Z,3.50
2022-08-20T16:55:51.212Z,3.33
2022-08-20T16:58:18.194Z,3.50
2022-08-20T17:00:47.905Z,3.45
2022-08-20T17:03:31.680Z,3.30
2022-08-20T17:06:28.691Z,3.53
2022-08-20T17:08:56.132Z,3.83
2022-08-20T17:11:33.596Z,3.67
2022-08-20T17:14:17.180Z,3.15
2022-08-20T17:16:51.628Z,3.10
2022-08-20T17:19:32.561Z,4.10
2022-08-20T17:22:14.331Z,4.60
2022-08-20T17:24:43.624Z,4.00
2022-08-20T17:27:27.029Z,3.83
2022-08-20T17:30:04.635Z,4.07
2022-08-20T17:32:38.317Z,3.67
2022-08-20T17:35:06.236Z,3.53
2022-08-20T17:37:49.733Z,4.40
2022-08-20T17:40:31.381Z,5.60
2022-08-20T17:43:06.113Z,3.73
2022-08-20T17:45:44.444Z,4.07
2022-08-20T17:48:21.812Z,3.30
2022-08-20T17:50:53.469Z,3.43
2022-08-20T17:53:35.708Z,3.50
2022-08-20T17:56:16.067Z,3.40
2022-08-20T17:58:55.573Z,3.50
2022-08-20T18:01:25.711Z,3.50
2022-08-20T18:03:53.578Z,4.00
2022-08-20T18:06:30.540Z,3.40
2022-08-20T18:09:15.761Z,3.80
2022-08-20T18:11:45.206Z,3.60
2022-08-20T18:14:18.055Z,3.63
2022-08-20T18:17:12.849Z,5.10
2022-08-20T18:20:16.069Z,3.93
2022-08-20T18:23:03.824Z,4.90
2022-08-20T18:25:46.091Z,4.77
2022-08-20T18:28:38.506Z,4.30
2022-08-20T18:31:10.160Z,4.33
2022-08-20T18:33:46.065Z,3.63
2022-08-20T18:36:29.194Z,4.43
2022-08-20T18:39:28.722Z,4.33
2022-08-20T18:42:23.876Z,3.97
2022-08-20T18:44:54.520Z,4.47
2022-08-20T18:47:35.387Z,5.07
2022-08-20T18:50:16.580Z,3.97
2022-08-20T18:52:52.089Z,4.40
2022-08-20T18:55:44.382Z,4.70
2022-08-20T18:58:31.430Z,4.17
2022-08-20T19:01:01.785Z,4.60
2022-08-20T19:03:47.539Z,4.37
2022-08-20T19:06:46.453Z,4.90
2022-08-20T19:09:47.204Z,5.10
2022-08-20T19:12:54.690Z,5.07
2022-08-20T19:15:24.410Z,5.10
2022-08-20T19:18:10.310Z,4.60
2022-08-20T19:20:55.571Z,4.63
2022-08-20T19:23:27.089Z,5.60
2022-08-20T19:26:25.276Z,5.83
2022-08-20T19:29:10.403Z,5.17
2022-08-20T19:31:38.006Z,4.60
2022-08-20T19:34:35.620Z,5.10
2022-08-20T19:37:34.933Z,5.00
2022-08-20T19:40:01.377Z,5.73
2022-08-20T19:42:35.110Z,5.43
2022-08-20T19:45:10.358Z,5.77
2022-08-20T19:48:01.780Z,5.33
2022-08-20T19:50:37.885Z,5.27
2022-08-20T19:53:17.105Z,5.17
2022-08-20T19:55:56.516Z,4.57
2022-08-20T19:58:26.210Z,4.70
2022-08-20T20:00:56.626Z,4.83
2022-08-20T20:03:35.159Z,5.93
2022-08-20T20:06:18.702Z,4.60
2022-08-20T20:09:03.623Z,5.00
2022-08-20T20:11:40.560Z,5.70
2022-08-20T20:14:12.004Z,5.47
2022-08-20T20:16:42.665Z,5.43
2022-08-20T20:19:26.276Z,5.33
2022-08-20T20:22:32.789Z,4.37
2022-08-20T20:25:18.120Z,5.57
2022-08-20T20:27:56.765Z,4.63
2022-08-20T20:30:34.324Z,4.33
2022-08-20T20:33:15.169Z,5.40
2022-08-20T20:35:44.513Z,7.97
2022-08-20T20:38:27.424Z,5.03
2022-08-20T20:40:59.194Z,4.70
2022-08-20T20:43:42.098Z,5.13
2022-08-20T20:46:28.690Z,4.60
2022-08-20T20:49:29.881Z,6.07
2022-08-20T20:52:05.016Z,4.37
2022-08-20T20:54:41.941Z,5.33
2022-08-20T20:57:36.381Z,4.93
2022-08-20T21:00:17.010Z,4.63
2022-08-20T21:02:46.223Z,4.37
2022-08-20T21:05:19.195Z,4.53
2022-08-20T21:08:01.056Z,4.63
2022-08-20T21:10:32.995Z,5.07
2022-08-20T21:13:06.518Z,4.13
2022-08-20T21:15:36.446Z,4.53
2022-08-20T21:18:09.420Z,4.73
2022-08-20T21:20:36.631Z,4.63
2022-08-20T21:23:08.517Z,4.83
2022-08-20T21:25:38.009Z,4.20
2022-08-20T21:28:07.679Z,4.17
2022-08-20T21:30:34.485Z,4.43
2022-08-20T21:33:04.119Z,4.83
2022-08-20T21:35:33.863Z,4.53
2022-08-20T21:38:01.170Z,4.63
2022-08-20T21:40:28.569Z,4.43
2022-08-20T21:42:57.086Z,4.57
2022-08-20T21:45:28.280Z,4.93
2022-08-20T21:47:57.031Z,4.80
2022-08-20T21:50:26.602Z,4.40
2022-08-20T21:52:59.671Z,4.90
2022-08-20T21:55:38.808Z,4.10
2022-08-20T21:58:07.123Z,4.87
2022-08-20T22:00:59.608Z,4.33
2022-08-20T22:03:31.542Z,5.07
2022-08-20T22:06:04.640Z,3.93
2022-08-20T22:08:32.126Z,4.30
2022-08-20T22:11:00.902Z,3.63
2022-08-20T22:13:32.865Z,4.33
2022-08-20T22:16:03.938Z,4.00
2022-08-20T22:18:37.190Z,4.03
2022-08-20T22:21:13.631Z,3.93
2022-08-20T22:23:44.486Z,5.27
2022-08-20T22:26:11.715Z,4.37
2022-08-20T22:28:40.286Z,4.43
2022-08-20T22:31:11.124Z,4.60
2022-08-20T22:33:39.024Z,4.30
2022-08-20T22:36:07.443Z,4.23
2022-08-20T22:38:37.584Z,5.27
2022-08-20T22:41:09.448Z,3.90
2022-08-20T22:43:49.722Z,4.67
2022-08-20T22:46:32.793Z,4.73
2022-08-20T22:49:01.737Z,6.57
2022-08-20T22:51:34.866Z,4.47
2022-08-20T22:54:10.490Z,4.70
2022-08-20T22:56:40.849Z,6.80
2022-08-20T22:59:07.874Z,4.53
2022-08-20T23:01:39.273Z,5.10
2022-08-20T23:04:28.474Z,4.43
2022-08-20T23:06:59.568Z,4.40
2022-08-20T23:09:27.253Z,4.77
2022-08-20T23:11:54.520Z,4.77
2022-08-20T23:14:21.956Z,4.50
2022-08-20T23:17:00.839Z,5.13
2022-08-20T23:19:27.962Z,4.43
2022-08-20T23:21:57.409Z,4.67
2022-08-20T23:24:26.800Z,4.83
2022-08-20T23:26:58.402Z,4.93
2022-08-20T23:29:26.487Z,4.47
2022-08-20T23:31:56.227Z,4.57
2022-08-20T23:34:24.908Z,4.53
2022-08-20T23:36:58.727Z,4.43
2022-08-20T23:39:31.418Z,4.37
2022-08-20T23:41:59.174Z,5.03
2022-08-20T23:44:27.199Z,5.03
2022-08-20T23:47:02.965Z,4.93
2022-08-20T23:49:32.010Z,5.33
2022-08-20T23:52:01.824Z,4.60
2022-08-20T23:54:30.904Z,4.67
2022-08-20T23:57:00.156Z,5.23
2022-08-20T23:59:29.206Z,4.87
